Time;durP1;ratioP1;P1;durP2;ratioP2;P2;SDS_P1;SDS_P2;PMS_P1;PMS_P2;Temp;Humidity;BMP_temperature;BMP_pressure;BME280_temperature;BME280_humidity;BME280_pressure;Samples;Min_cycle;Max_cycle;Signal;HPM_P1;HPM_P2
2021/04/16 00:02:21;;;;;;;4.10;2.33;;;2.60;84.80;;;;;;4886607;29;20029;-92
2021/04/16 00:04:46;;;;;;;6.18;2.28;;;2.60;85.10;;;;;;4885365;29;20099;-92
2021/04/16 00:07:12;;;;;;;4.57;2.80;;;2.60;85.20;;;;;;4882273;29;20029;-92
2021/04/16 00:09:38;;;;;;;4.03;2.50;;;2.50;85.30;;;;;;4883185;29;20739;-93
2021/04/16 00:12:05;;;;;;;5.32;2.30;;;2.50;85.60;;;;;;4884758;29;20039;-93
2021/04/16 00:14:32;;;;;;;7.60;2.35;;;2.50;85.80;;;;;;4884101;29;20100;-93
2021/04/16 00:16:58;;;;;;;6.80;2.45;;;2.40;86.00;;;;;;4885977;29;20040;-93
2021/04/16 00:19:24;;;;;;;6.10;2.47;;;2.40;86.30;;;;;;4917391;29;20032;-93
2021/04/16 00:21:50;;;;;;;4.15;2.22;;;2.30;86.50;;;;;;4885678;29;20076;-93
2021/04/16 00:24:15;;;;;;;5.82;2.17;;;2.30;86.80;;;;;;4886198;29;20065;-92
2021/04/16 00:26:42;;;;;;;6.03;2.60;;;2.20;87.80;;;;;;4903465;29;20034;-93
2021/04/16 00:29:08;;;;;;;4.22;2.22;;;2.20;87.40;;;;;;4887265;29;20084;-93
2021/04/16 00:31:35;;;;;;;2.78;2.30;;;2.20;87.90;;;;;;4883591;29;20060;-93
2021/04/16 00:34:01;;;;;;;3.70;2.63;;;2.10;88.00;;;;;;4885088;29;20024;-92
2021/04/16 00:36:29;;;;;;;2.63;2.00;;;2.10;88.10;;;;;;4916103;29;20036;-92
2021/04/16 00:38:55;;;;;;;6.07;2.30;;;2.10;88.30;;;;;;4882015;29;20048;-93
2021/04/16 00:41:27;;;;;;;9.25;2.53;;;2.10;88.70;;;;;;4885280;29;20031;-91
2021/04/16 00:43:53;;;;;;;3.05;2.20;;;2.10;88.80;;;;;;4882872;29;20502;-93
2021/04/16 00:46:43;;;;;;;3.38;2.72;;;2.10;89.00;;;;;;4883749;29;20030;-94
2021/04/16 00:49:14;;;;;;;4.97;2.40;;;2.10;89.10;;;;;;4883500;29;20471;-95
2021/04/16 00:51:44;;;;;;;5.72;2.67;;;2.10;89.10;;;;;;4887258;29;20076;-93
2021/04/16 00:54:15;;;;;;;4.65;2.88;;;2.10;89.40;;;;;;4884167;29;20029;-93
2021/04/16 00:56:41;;;;;;;5.20;2.58;;;2.00;89.50;;;;;;4887914;29;20045;-92
2021/04/16 00:59:07;;;;;;;3.20;2.22;;;2.00;89.70;;;;;;4889584;29;20024;-93
2021/04/16 01:01:33;;;;;;;3.67;2.45;;;1.90;89.90;;;;;;4883362;29;20497;-92
2021/04/16 01:03:59;;;;;;;4.00;2.70;;;1.90;90.00;;;;;;4882525;29;20036;-93
2021/04/16 01:06:25;;;;;;;5.00;3.33;;;1.80;90.10;;;;;;4883964;29;20096;-93
2021/04/16 01:08:53;;;;;;;6.78;2.20;;;1.80;90.20;;;;;;4900371;29;20039;-93
2021/04/16 01:11:20;;;;;;;5.53;2.60;;;1.80;90.30;;;;;;4900941;29;20080;-93
2021/04/16 01:13:49;;;;;;;5.30;2.50;;;1.70;90.40;;;;;;4882825;29;20025;-93
2021/04/16 01:16:18;;;;;;;5.38;2.63;;;1.70;90.50;;;;;;4881308;29;20025;-92
2021/04/16 01:18:47;;;;;;;3.22;2.38;;;1.70;90.60;;;;;;4886881;29;20025;-93
2021/04/16 01:21:18;;;;;;;5.45;2.40;;;1.70;90.70;;;;;;4915627;29;20032;-93
2021/04/16 01:24:16;;;;;;;5.03;2.50;;;1.60;90.70;;;;;;4896603;29;20080;-91
2021/04/16 01:26:42;;;;;;;3.05;2.40;;;1.60;90.80;;;;;;4895820;29;20037;-93
2021/04/16 01:29:08;;;;;;;4.72;2.80;;;1.60;90.90;;;;;;4899013;29;20028;-95
2021/04/16 01:31:34;;;;;;;4.82;3.05;;;1.50;91.00;;;;;;4881436;29;20044;-93
2021/04/16 01:34:00;;;;;;;6.82;3.08;;;1.50;91.10;;;;;;4898098;29;20028;-92
2021/04/16 01:36:28;;;;;;;6.22;2.70;;;1.50;91.20;;;;;;4881167;29;20033;-93
2021/04/16 01:38:55;;;;;;;7.05;2.83;;;1.50;91.30;;;;;;4881564;29;20060;-91
2021/04/16 01:41:23;;;;;;;4.90;2.70;;;1.40;91.30;;;;;;4881329;29;20048;-93
2021/04/16 01:43:58;;;;;;;5.13;2.47;;;1.40;91.40;;;;;;4881245;29;20040;-92
2021/04/16 01:46:25;;;;;;;9.48;3.00;;;1.30;91.50;;;;;;4881474;29;20024;-94
2021/04/16 01:48:53;;;;;;;5.63;2.75;;;1.30;91.60;;;;;;4882921;29;20025;-92
2021/04/16 01:51:32;;;;;;;4.82;2.65;;;1.30;91.70;;;;;;4883450;29;20029;-94
2021/04/16 01:54:10;;;;;;;4.78;2.85;;;1.30;91.90;;;;;;4883578;29;20092;-93
2021/04/16 01:56:37;;;;;;;3.00;2.38;;;1.30;92.00;;;;;;4882566;29;20059;-92
2021/04/16 01:59:06;;;;;;;2.83;2.40;;;1.20;92.00;;;;;;4884003;29;20032;-93
2021/04/16 02:01:32;;;;;;;6.05;2.47;;;1.20;92.10;;;;;;4883640;29;20029;-93
2021/04/16 02:03:58;;;;;;;6.38;2.40;;;1.20;92.20;;;;;;4883613;29;20035;-92
2021/04/16 02:06:24;;;;;;;4.50;3.00;;;1.10;92.20;;;;;;4884463;29;20036;-92
2021/04/16 02:08:49;;;;;;;5.72;2.58;;;1.10;92.30;;;;;;4915653;29;20029;-92
2021/04/16 02:11:15;;;;;;;4.38;2.42;;;1.10;92.40;;;;;;4884555;29;20032;-92
2021/04/16 02:13:41;;;;;;;3.55;2.85;;;1.10;92.50;;;;;;4901075;29;20028;-92
2021/04/16 02:16:08;;;;;;;5.15;2.90;;;1.00;92.60;;;;;;4884389;29;20031;-91
2021/04/16 02:18:33;;;;;;;5.88;3.35;;;1.00;92.60;;;;;;4883901;29;20028;-90
2021/04/16 02:20:59;;;;;;;4.00;2.55;;;1.00;92.80;;;;;;4883429;29;20051;-91
2021/04/16 02:23:25;;;;;;;6.10;2.40;;;1.00;92.80;;;;;;4885055;29;20045;-92
2021/04/16 02:25:50;;;;;;;4.30;2.40;;;0.90;92.90;;;;;;4886439;29;20020;-91
2021/04/16 02:28:16;;;;;;;9.50;2.25;;;0.90;93.00;;;;;;4886361;29;20030;-90
2021/04/16 02:30:42;;;;;;;5.60;2.72;;;0.90;93.10;;;;;;4884867;29;20475;-92
2021/04/16 02:33:07;;;;;;;6.28;2.80;;;0.90;93.20;;;;;;4884687;29;20115;-90
2021/04/16 02:35:33;;;;;;;4.85;3.08;;;0.90;93.20;;;;;;4914890;29;20040;-91
2021/04/16 02:37:59;;;;;;;6.75;2.80;;;0.90;93.30;;;;;;4883950;29;20031;-91
2021/04/16 02:40:26;;;;;;;6.82;2.75;;;0.80;93.40;;;;;;4883358;29;20044;-91
2021/04/16 02:42:53;;;;;;;4.20;2.58;;;0.80;93.50;;;;;;4883552;29;20048;-91
2021/04/16 02:45:22;;;;;;;6.88;2.78;;;0.70;93.60;;;;;;4883789;29;20040;-91
2021/04/16 02:47:48;;;;;;;7.00;3.00;;;0.70;93.70;;;;;;4885036;29;20415;-91
2021/04/16 02:50:17;;;;;;;6.22;2.65;;;0.60;93.80;;;;;;4887756;29;20108;-91
2021/04/16 02:52:43;;;;;;;3.30;2.42;;;0.60;93.90;;;;;;4888050;29;20164;-93
2021/04/16 02:55:10;;;;;;;4.28;2.58;;;0.60;94.00;;;;;;4899017;29;20447;-92
2021/04/16 02:57:36;;;;;;;4.97;2.50;;;0.60;94.10;;;;;;4888588;29;20127;-91
2021/04/16 03:00:06;;;;;;;4.05;2.65;;;0.60;94.30;;;;;;4888644;29;20060;-93
2021/04/16 03:02:32;;;;;;;4.85;3.08;;;0.60;94.40;;;;;;4886259;29;20119;-93
2021/04/16 03:04:57;;;;;;;5.05;2.67;;;0.60;94.50;;;;;;4885067;29;20120;-91
2021/04/16 03:07:23;;;;;;;6.90;2.75;;;0.60;94.60;;;;;;4882680;29;20061;-93
2021/04/16 03:09:49;;;;;;;4.80;2.38;;;0.60;94.60;;;;;;4882714;29;20043;-91
2021/04/16 03:12:14;;;;;;;6.45;2.38;;;0.60;95.00;;;;;;4883495;29;20554;-91
2021/04/16 03:14:40;;;;;;;3.65;2.55;;;0.60;94.80;;;;;;4885514;29;20084;-92
2021/04/16 03:17:06;;;;;;;5.97;2.58;;;0.60;94.90;;;;;;4885345;29;20055;-92
2021/04/16 03:19:31;;;;;;;4.30;2.78;;;0.60;94.90;;;;;;4885313;29;20333;-92
2021/04/16 03:21:57;;;;;;;5.07;2.72;;;0.50;95.00;;;;;;4915472;29;20561;-91
2021/04/16 03:24:22;;;;;;;3.85;2.45;;;0.50;95.10;;;;;;4887663;29;20037;-93
2021/04/16 03:26:48;;;;;;;3.88;2.55;;;0.50;95.20;;;;;;4886672;29;20035;-91
2021/04/16 03:29:14;;;;;;;4.35;2.80;;;0.50;95.20;;;;;;4882880;29;20024;-92
2021/04/16 03:31:39;;;;;;;3.90;2.70;;;0.40;95.30;;;;;;4882485;29;20028;-91
2021/04/16 03:34:05;;;;;;;5.18;2.83;;;0.50;95.50;;;;;;4882459;29;20040;-92
2021/04/16 03:36:31;;;;;;;4.97;2.50;;;0.40;95.50;;;;;;4883053;29;20021;-92
2021/04/16 03:38:57;;;;;;;5.43;2.22;;;0.40;95.50;;;;;;4913908;29;20071;-91
2021/04/16 03:41:23;;;;;;;4.63;2.90;;;0.40;95.60;;;;;;4882230;29;20037;-93
2021/04/16 03:43:49;;;;;;;3.63;2.15;;;0.40;95.60;;;;;;4883115;29;20044;-92
2021/04/16 03:46:15;;;;;;;5.07;2.33;;;0.30;95.70;;;;;;4884301;29;20028;-90
2021/04/16 03:48:41;;;;;;;5.47;2.47;;;0.30;95.80;;;;;;4902465;29;20025;-91
2021/04/16 03:51:09;;;;;;;3.80;2.08;;;0.30;95.90;;;;;;4902085;29;20035;-91
2021/04/16 03:53:36;;;;;;;4.05;2.30;;;0.30;95.90;;;;;;4882476;29;20087;-92
2021/04/16 03:56:03;;;;;;;5.90;2.15;;;0.20;95.90;;;;;;4882258;29;20032;-93
2021/04/16 03:58:28;;;;;;;4.38;2.53;;;0.20;96.10;;;;;;4899037;29;20032;-91
2021/04/16 04:00:54;;;;;;;4.70;2.58;;;0.10;96.10;;;;;;4885364;29;20394;-92
2021/04/16 04:03:20;;;;;;;6.60;2.65;;;0.20;96.20;;;;;;4886740;29;20077;-92
2021/04/16 04:05:45;;;;;;;3.33;2.30;;;0.10;96.60;;;;;;4882851;29;20037;-92
2021/04/16 04:08:11;;;;;;;5.22;2.40;;;0.10;96.40;;;;;;4882430;29;20024;-91
2021/04/16 04:10:38;;;;;;;3.65;2.35;;;0.10;96.40;;;;;;4913088;29;20036;-93
2021/04/16 04:13:09;;;;;;;4.82;2.63;;;0.10;96.50;;;;;;4881549;29;20482;-92
2021/04/16 04:15:35;;;;;;;5.88;2.80;;;0.00;96.50;;;;;;4898101;29;20041;-91
2021/04/16 04:18:01;;;;;;;4.18;2.90;;;0.00;96.60;;;;;;4881843;29;20056;-91
2021/04/16 04:20:30;;;;;;;5.55;2.80;;;0.00;96.70;;;;;;4881800;29;20412;-91
2021/04/16 04:23:00;;;;;;;4.85;2.75;;;0.00;96.90;;;;;;4881810;29;20036;-91
2021/04/16 04:25:27;;;;;;;7.13;2.43;;;0.00;97.00;;;;;;4879186;29;20065;-91
2021/04/16 04:27:53;;;;;;;7.47;3.70;;;0.00;97.10;;;;;;4898041;29;20036;-90
2021/04/16 04:30:28;;;;;;;4.15;2.67;;;0.00;97.20;;;;;;4881089;29;20025;-89
2021/04/16 04:32:55;;;;;;;4.22;3.17;;;0.00;97.20;;;;;;4897005;29;20033;-89
2021/04/16 04:35:21;;;;;;;5.35;2.78;;;0.00;97.20;;;;;;4897867;29;20076;-92
2021/04/16 04:37:47;;;;;;;3.53;2.60;;;-0.10;97.10;;;;;;4881249;29;20036;-90
2021/04/16 04:40:14;;;;;;;3.85;2.47;;;-0.10;97.10;;;;;;4897938;29;20077;-90
2021/04/16 04:42:39;;;;;;;7.50;2.67;;;-0.20;97.20;;;;;;4913119;29;20037;-91
2021/04/16 04:45:06;;;;;;;5.88;2.70;;;-0.20;97.30;;;;;;4897045;29;20100;-90
2021/04/16 04:47:32;;;;;;;6.57;2.78;;;-0.20;97.40;;;;;;4881937;29;20060;-92
2021/04/16 04:49:58;;;;;;;3.65;2.60;;;-0.30;97.50;;;;;;4881718;29;20056;-90
2021/04/16 04:52:26;;;;;;;4.00;2.65;;;-0.30;97.50;;;;;;4881297;29;20080;-91
2021/04/16 04:54:54;;;;;;;9.07;3.17;;;-0.40;97.60;;;;;;4881334;29;20543;-89
2021/04/16 04:57:21;;;;;;;8.02;3.33;;;-0.40;97.80;;;;;;4881236;29;20048;-89
2021/04/16 04:59:47;;;;;;;6.43;3.38;;;-0.40;97.90;;;;;;4912076;29;20032;-91
2021/04/16 05:02:15;;;;;;;6.85;3.88;;;-0.40;98.00;;;;;;4897712;29;20534;-92
2021/04/16 05:04:40;;;;;;;7.85;3.53;;;-0.40;98.20;;;;;;4880438;29;20041;-90
2021/04/16 05:07:06;;;;;;;7.40;3.22;;;-0.40;98.30;;;;;;4881209;29;20506;-89
2021/04/16 05:09:32;;;;;;;5.13;3.05;;;-0.40;98.40;;;;;;4880459;29;20033;-90
2021/04/16 05:11:57;;;;;;;4.60;2.83;;;-0.40;98.40;;;;;;4880211;29;20021;-90
2021/04/16 05:14:24;;;;;;;4.47;2.70;;;-0.40;98.60;;;;;;4880153;29;20573;-92
2021/04/16 05:16:50;;;;;;;9.25;3.67;;;-0.40;98.60;;;;;;4911845;29;20119;-92
2021/04/16 05:19:16;;;;;;;7.05;3.38;;;-0.40;98.70;;;;;;4880461;29;20032;-91
2021/04/16 05:21:42;;;;;;;5.63;3.47;;;-0.50;98.70;;;;;;4880355;29;20025;-91
2021/04/16 05:24:10;;;;;;;5.72;3.45;;;-0.50;98.80;;;;;;4882378;29;20553;-89
2021/04/16 05:26:37;;;;;;;7.25;3.45;;;-0.50;98.90;;;;;;4900019;29;20045;-89
2021/04/16 05:29:04;;;;;;;5.65;3.08;;;-0.50;98.90;;;;;;4900023;29;20020;-90
2021/04/16 05:31:30;;;;;;;4.78;3.20;;;-0.50;99.20;;;;;;4900187;29;20032;-91
2021/04/16 05:33:55;;;;;;;6.13;3.10;;;-0.50;98.90;;;;;;4914786;29;20021;-88
2021/04/16 05:36:22;;;;;;;5.35;3.38;;;-0.60;99.00;;;;;;4884363;29;20069;-92
2021/04/16 05:38:48;;;;;;;6.80;3.00;;;-0.50;99.00;;;;;;4884988;29;20028;-92
2021/04/16 05:41:14;;;;;;;5.47;3.20;;;-0.60;99.00;;;;;;4888013;29;20036;-90
2021/04/16 05:43:39;;;;;;;5.20;3.10;;;-0.60;99.10;;;;;;4886294;29;20040;-91
2021/04/16 05:46:06;;;;;;;7.40;3.25;;;-0.60;99.20;;;;;;4884442;29;20096;-91
2021/04/16 05:48:31;;;;;;;4.93;3.15;;;-0.60;99.30;;;;;;4885722;29;20033;-91
2021/04/16 05:50:57;;;;;;;8.23;3.67;;;-0.60;99.40;;;;;;4916757;29;20525;-92
2021/04/16 05:53:23;;;;;;;7.10;3.83;;;-0.70;99.40;;;;;;4889454;29;20036;-91
2021/04/16 05:55:49;;;;;;;8.35;3.45;;;-0.70;99.40;;;;;;4888642;29;20040;-91
2021/04/16 05:58:14;;;;;;;7.28;3.67;;;-0.70;99.60;;;;;;4886595;29;20372;-91
2021/04/16 06:00:40;;;;;;;10.38;3.65;;;-0.70;99.70;;;;;;4886320;29;20499;-92
2021/04/16 06:03:06;;;;;;;5.93;3.55;;;-0.70;99.80;;;;;;4892353;29;20024;-93
2021/04/16 06:05:32;;;;;;;7.40;3.42;;;-0.80;99.90;;;;;;4884179;29;20044;-91
2021/04/16 06:07:57;;;;;;;4.65;3.22;;;-0.70;99.90;;;;;;4900944;29;20024;-92
2021/04/16 06:10:24;;;;;;;6.57;3.88;;;-0.70;99.90;;;;;;4900914;29;20064;-92
2021/04/16 06:12:51;;;;;;;9.52;3.25;;;-0.70;99.90;;;;;;4883544;29;20028;-92
2021/04/16 06:15:22;;;;;;;8.23;3.45;;;-0.70;99.90;;;;;;4889671;29;20519;-91
2021/04/16 06:17:49;;;;;;;7.57;3.50;;;-0.70;99.90;;;;;;4881035;29;20040;-92
2021/04/16 06:20:18;;;;;;;5.07;3.20;;;-0.70;99.90;;;;;;4885439;29;20028;-92
2021/04/16 06:22:46;;;;;;;4.82;3.53;;;-0.60;99.90;;;;;;4884055;29;20108;-93
2021/04/16 06:25:14;;;;;;;11.18;3.13;;;-0.60;99.90;;;;;;4899322;29;20045;-91
2021/04/16 06:27:39;;;;;;;6.50;3.42;;;-0.60;99.90;;;;;;4899446;29;20041;-91
2021/04/16 06:30:06;;;;;;;5.82;3.38;;;-0.60;99.90;;;;;;4883842;29;20124;-91
2021/04/16 06:32:32;;;;;;;7.22;4.22;;;-0.60;99.90;;;;;;4885127;29;20037;-92
2021/04/16 06:34:59;;;;;;;8.68;4.05;;;-0.50;99.90;;;;;;4899723;29;20388;-91
2021/04/16 06:37:24;;;;;;;9.15;3.97;;;-0.50;99.90;;;;;;4899334;29;20036;-90
2021/04/16 06:39:50;;;;;;;6.78;3.58;;;-0.50;99.90;;;;;;4883726;29;20426;-91
2021/04/16 06:42:28;;;;;;;8.75;3.70;;;-0.50;99.90;;;;;;4888202;29;20032;-91
2021/04/16 06:44:57;;;;;;;8.10;3.88;;;-0.40;99.90;;;;;;4901015;29;20032;-90
2021/04/16 06:47:31;;;;;;;7.18;3.72;;;-0.40;99.90;;;;;;4907049;29;20020;-91
2021/04/16 06:49:59;;;;;;;10.23;3.88;;;-0.30;99.90;;;;;;4886691;29;20025;-91
2021/04/16 06:52:34;;;;;;;8.32;4.18;;;-0.30;99.90;;;;;;4882784;29;20029;-93
2021/04/16 06:55:18;;;;;;;6.55;3.80;;;-0.20;99.90;;;;;;4899212;29;20029;-93
2021/04/16 06:57:47;;;;;;;8.38;3.75;;;-0.20;99.90;;;;;;4899395;29;20111;-91
2021/04/16 07:00:47;;;;;;;6.82;3.88;;;-0.10;99.90;;;;;;4880172;29;20364;-90
2021/04/16 07:03:28;;;;;;;6.80;4.00;;;-0.10;99.90;;;;;;4880302;29;20037;-90
2021/04/16 07:06:19;;;;;;;8.98;3.65;;;-0.10;99.90;;;;;;4898950;29;20075;-91
2021/04/16 07:09:08;;;;;;;6.88;4.10;;;0.00;99.90;;;;;;4876578;29;20041;-91
2021/04/16 07:11:41;;;;;;;7.30;3.58;;;0.10;99.90;;;;;;4882033;29;20029;-91
2021/04/16 07:14:16;;;;;;;9.43;4.00;;;0.10;99.90;;;;;;4897234;29;20032;-90
2021/04/16 07:16:42;;;;;;;8.25;4.10;;;0.20;99.90;;;;;;4881715;29;20024;-90
2021/04/16 07:19:28;;;;;;;8.23;4.10;;;0.30;99.90;;;;;;4881717;29;20033;-91
2021/04/16 07:22:07;;;;;;;10.02;4.45;;;0.40;99.90;;;;;;4880165;29;20060;-89
2021/04/16 07:24:33;;;;;;;7.72;4.40;;;0.40;99.90;;;;;;4880009;29;20040;-90
2021/04/16 07:27:15;;;;;;;7.05;4.22;;;0.50;99.90;;;;;;4881816;29;20017;-91
2021/04/16 07:29:55;;;;;;;9.50;4.32;;;0.60;99.90;;;;;;4897220;29;20066;-90
2021/04/16 07:32:28;;;;;;;8.70;4.03;;;0.70;99.90;;;;;;4882162;29;20088;-90
2021/04/16 07:34:56;;;;;;;9.30;4.35;;;0.80;99.90;;;;;;4897100;29;20486;-90
2021/04/16 07:37:42;;;;;;;7.63;3.97;;;0.90;99.90;;;;;;4881459;29;20088;-90
2021/04/16 07:40:21;;;;;;;9.23;4.88;;;1.00;99.90;;;;;;4896689;29;20057;-90
2021/04/16 07:42:51;;;;;;;5.97;3.20;;;1.10;99.90;;;;;;4870937;29;20037;-90
2021/04/16 07:45:17;;;;;;;4.45;2.92;;;1.10;99.90;;;;;;4897936;29;20044;-90
2021/04/16 07:47:44;;;;;;;9.63;5.00;;;1.30;99.90;;;;;;4896719;29;20549;-90
2021/04/16 07:50:30;;;;;;;13.02;5.72;;;1.40;99.90;;;;;;4883584;29;20051;-92
2021/04/16 07:52:57;;;;;;;15.70;7.32;;;1.50;99.90;;;;;;4882845;29;20032;-90
2021/04/16 07:55:29;;;;;;;19.58;8.57;;;1.60;99.90;;;;;;4883805;29;20154;-91
2021/04/16 07:57:58;;;;;;;55.17;25.15;;;1.70;99.90;;;;;;4881967;29;20109;-91
2021/04/16 08:00:26;;;;;;;17.98;7.90;;;1.80;99.90;;;;;;4897496;29;20064;-91
2021/04/16 08:03:16;;;;;;;23.25;12.70;;;2.00;99.90;;;;;;4898638;29;20040;-90
2021/04/16 08:05:50;;;;;;;10.00;5.10;;;2.10;99.70;;;;;;4895208;29;20413;-91
2021/04/16 08:08:24;;;;;;;20.85;12.23;;;2.20;99.50;;;;;;4900307;29;20197;-92
2021/04/16 08:11:11;;;;;;;12.02;5.75;;;2.30;99.40;;;;;;4908008;29;20061;-91
2021/04/16 08:13:43;;;;;;;8.07;4.88;;;2.50;99.10;;;;;;4903461;29;20035;-90
2021/04/16 08:16:15;;;;;;;10.95;7.15;;;2.60;99.00;;;;;;4900271;29;20045;-91
2021/04/16 08:18:44;;;;;;;11.52;6.45;;;2.70;99.00;;;;;;4898439;29;20035;-91
2021/04/16 08:21:20;;;;;;;10.73;5.47;;;2.90;98.90;;;;;;4883844;29;20475;-90
2021/04/16 08:24:15;;;;;;;9.10;4.88;;;3.00;98.80;;;;;;4914061;29;20071;-91
2021/04/16 08:26:45;;;;;;;9.23;5.10;;;3.20;98.60;;;;;;4833852;29;20043;-91
2021/04/16 08:29:34;;;;;;;8.15;4.35;;;3.30;98.50;;;;;;4824425;29;20034;-91
2021/04/16 08:32:22;;;;;;;7.15;4.35;;;3.50;98.30;;;;;;4833459;29;20044;-93
2021/04/16 08:34:57;;;;;;;7.22;4.32;;;3.70;98.60;;;;;;4819210;29;20061;-92
2021/04/16 08:37:27;;;;;;;7.32;3.80;;;3.90;98.10;;;;;;4843756;29;20052;-92
2021/04/16 08:39:53;;;;;;;10.65;3.88;;;4.00;98.00;;;;;;4843160;29;20066;-92
2021/04/16 08:42:33;;;;;;;9.60;4.00;;;4.20;98.30;;;;;;4831224;29;20058;-92
2021/04/16 08:45:22;;;;;;;7.15;4.28;;;4.40;98.00;;;;;;4846249;29;20042;-93
2021/04/16 08:47:56;;;;;;;6.95;3.97;;;4.60;97.80;;;;;;4840770;29;20022;-93
2021/04/16 08:50:28;;;;;;;6.80;4.43;;;4.80;97.70;;;;;;4843932;29;20048;-91
2021/04/16 08:52:57;;;;;;;5.45;3.15;;;5.00;97.60;;;;;;4847829;29;20035;-94
2021/04/16 08:55:42;;;;;;;5.97;3.38;;;5.20;97.50;;;;;;4826839;29;20034;-93
2021/04/16 08:58:33;;;;;;;6.47;3.53;;;5.40;97.40;;;;;;4828212;29;20090;-93
2021/04/16 09:01:13;;;;;;;6.30;3.25;;;5.60;97.40;;;;;;4833022;29;20035;-92
2021/04/16 09:04:04;;;;;;;5.35;2.70;;;5.90;97.10;;;;;;4869710;29;20140;-93
2021/04/16 09:06:32;;;;;;;4.43;2.03;;;6.10;96.80;;;;;;4880229;29;20048;-93
2021/04/16 09:08:59;;;;;;;5.50;1.35;;;6.40;96.40;;;;;;4905797;29;20029;-93
2021/04/16 09:11:43;;;;;;;2.88;1.00;;;6.50;95.40;;;;;;4888889;29;20029;-93
2021/04/16 09:14:15;;;;;;;4.45;1.33;;;6.80;93.90;;;;;;4922042;29;20032;-93
2021/04/16 09:16:50;;;;;;;3.33;1.50;;;7.00;92.90;;;;;;4903609;29;20553;-93
2021/04/16 09:19:25;;;;;;;2.60;1.85;;;7.20;92.00;;;;;;4917688;29;20068;-94
2021/04/16 09:22:03;;;;;;;1.63;0.95;;;7.50;91.30;;;;;;4917686;29;20024;-93
2021/04/16 09:24:57;;;;;;;2.63;1.30;;;7.80;90.10;;;;;;4902045;29;20040;-94
2021/04/16 09:27:25;;;;;;;5.10;1.65;;;8.00;86.70;;;;;;4894196;29;20032;-94
2021/04/16 09:30:11;;;;;;;3.88;2.50;;;8.20;85.40;;;;;;4888944;29;20020;-92
2021/04/16 09:32:41;;;;;;;4.00;1.73;;;8.50;83.70;;;;;;4870864;29;20041;-94
2021/04/16 09:35:19;;;;;;;1.63;1.30;;;8.70;83.00;;;;;;4885963;29;20065;-94
2021/04/16 09:37:50;;;;;;;3.78;1.75;;;9.00;81.60;;;;;;4903112;29;20029;-94
2021/04/16 09:40:20;;;;;;;1.90;1.50;;;9.20;80.90;;;;;;4888080;29;20049;-95
2021/04/16 09:43:27;;;;;;;4.35;1.50;;;9.40;78.70;;;;;;4905392;29;20032;-95
2021/04/16 09:45:53;;;;;;;3.78;1.70;;;9.70;77.20;;;;;;4904334;29;20040;-94
2021/04/16 09:48:19;;;;;;;6.00;2.15;;;9.90;75.60;;;;;;4888424;29;20028;-94
2021/04/16 09:50:54;;;;;;;7.25;2.00;;;10.10;74.70;;;;;;4883461;29;20057;-95
2021/04/16 09:53:23;;;;;;;5.40;2.15;;;10.20;73.40;;;;;;4900279;29;20021;-94
2021/04/16 09:55:58;;;;;;;6.28;2.42;;;10.20;72.50;;;;;;4896927;29;20044;-94
2021/04/16 09:58:30;;;;;;;4.05;2.47;;;10.20;72.20;;;;;;4883332;29;20032;-95
2021/04/16 10:00:56;;;;;;;3.90;2.50;;;10.20;72.40;;;;;;4882206;29;20032;-94
2021/04/16 10:03:43;;;;;;;2.58;1.90;;;10.40;72.40;;;;;;4897046;29;20394;-93
2021/04/16 10:06:42;;;;;;;7.13;2.55;;;10.50;72.00;;;;;;4895426;29;20187;-94
2021/04/16 10:09:17;;;;;;;5.25;2.47;;;10.60;71.70;;;;;;4899680;29;20096;-94
2021/04/16 10:12:02;;;;;;;5.15;2.63;;;10.70;71.70;;;;;;4886179;29;20144;-95
2021/04/16 10:14:30;;;;;;;4.25;2.30;;;10.70;71.30;;;;;;4887800;29;20393;-95
2021/04/16 10:17:13;;;;;;;4.53;2.40;;;10.70;71.10;;;;;;4887088;29;20048;-95
2021/04/16 10:19:41;;;;;;;6.75;2.42;;;10.70;70.90;;;;;;4898837;29;20033;-95
2021/04/16 10:22:14;;;;;;;5.85;2.50;;;10.70;70.80;;;;;;4903208;29;20056;-93
2021/04/16 11:28:17;;;;;;;4.30;2.53;;;13.80;60.40;;;;;;4910291;29;20031;-96
2021/04/16 12:40:16;;;;;;;10.63;2.80;;;14.40;55.00;;;;;;4902130;29;20036;-94
2021/04/16 12:42:42;;;;;;;6.47;2.75;;;14.20;55.20;;;;;;4886668;29;20040;-93
2021/04/16 12:45:11;;;;;;;3.40;2.42;;;14.10;55.40;;;;;;4885022;29;20505;-93
2021/04/16 12:47:39;;;;;;;7.38;2.70;;;13.90;55.50;;;;;;4885849;29;20132;-93
2021/04/16 12:50:07;;;;;;;4.85;2.90;;;13.80;55.70;;;;;;4885298;29;20028;-93
2021/04/16 12:52:34;;;;;;;6.60;2.72;;;13.90;55.60;;;;;;4885297;29;20031;-93
2021/04/16 12:54:59;;;;;;;5.90;3.05;;;14.10;55.50;;;;;;4884592;29;20036;-92
2021/04/16 12:57:43;;;;;;;4.65;2.58;;;14.10;55.20;;;;;;4886020;29;20032;-93
2021/04/16 13:00:15;;;;;;;3.92;2.28;;;14.10;54.90;;;;;;4873969;29;20033;-94
2021/04/16 13:02:41;;;;;;;6.15;3.00;;;14.00;55.00;;;;;;4901479;29;20021;-94
2021/04/16 13:05:11;;;;;;;5.35;2.22;;;13.80;55.00;;;;;;4916905;29;20040;-93
2021/04/16 13:07:37;;;;;;;4.93;2.50;;;14.00;55.30;;;;;;4886023;29;20057;-94
2021/04/16 13:10:23;;;;;;;4.57;2.55;;;14.50;55.10;;;;;;4885584;29;20032;-94
2021/04/16 13:12:49;;;;;;;5.78;2.63;;;14.90;54.10;;;;;;4899554;29;20029;-93
2021/04/16 13:15:16;;;;;;;4.10;2.70;;;15.20;53.30;;;;;;4887224;29;20390;-94
2021/04/16 13:17:49;;;;;;;5.95;2.70;;;15.60;52.90;;;;;;4886308;29;20483;-94
2021/04/16 13:20:17;;;;;;;7.03;2.78;;;15.90;52.30;;;;;;4916663;29;20037;-93
2021/04/16 13:22:44;;;;;;;4.30;2.10;;;16.20;51.70;;;;;;4884742;29;20387;-94
2021/04/16 13:25:11;;;;;;;4.95;2.28;;;16.40;51.30;;;;;;4884065;29;20033;-94
2021/04/16 13:27:37;;;;;;;5.90;2.38;;;16.60;50.90;;;;;;4883602;29;20487;-94
2021/04/16 13:30:05;;;;;;;3.83;2.38;;;16.60;50.50;;;;;;4883532;29;20032;-94
2021/04/16 13:32:39;;;;;;;7.18;2.33;;;16.50;50.50;;;;;;4884345;29;20038;-94
2021/04/16 13:35:06;;;;;;;5.15;2.83;;;16.40;50.50;;;;;;4897955;29;20032;-93
2021/04/16 13:37:32;;;;;;;6.93;2.50;;;16.20;50.70;;;;;;4883628;29;20143;-93
2021/04/16 13:39:58;;;;;;;4.63;2.17;;;16.10;50.90;;;;;;4885094;29;20029;-93
2021/04/16 13:42:24;;;;;;;4.03;2.13;;;16.00;50.90;;;;;;4900118;29;20044;-93
2021/04/16 13:44:50;;;;;;;18.88;2.85;;;15.90;50.90;;;;;;4887441;29;20039;-93
2021/04/16 13:47:25;;;;;;;4.40;2.40;;;15.90;51.30;;;;;;4886375;29;20021;-93
2021/04/16 13:49:55;;;;;;;4.18;2.40;;;16.00;51.30;;;;;;4897637;29;20044;-94
2021/04/16 13:52:21;;;;;;;4.35;1.95;;;16.20;51.30;;;;;;4901393;29;20028;-92
2021/04/16 13:54:48;;;;;;;2.47;2.03;;;16.50;51.00;;;;;;4885954;29;20600;-92
2021/04/16 13:57:16;;;;;;;4.63;2.30;;;16.70;50.70;;;;;;4918214;29;20056;-93
2021/04/16 13:59:42;;;;;;;6.30;2.72;;;17.00;50.40;;;;;;4887971;29;20096;-93
2021/04/16 14:02:10;;;;;;;2.72;2.15;;;17.30;49.70;;;;;;4904575;29;20035;-93
2021/04/16 14:04:40;;;;;;;7.97;3.05;;;17.30;48.80;;;;;;4887610;29;20056;-92
2021/04/16 14:07:06;;;;;;;5.03;2.67;;;17.20;48.80;;;;;;4887417;29;20028;-94
2021/04/16 14:09:34;;;;;;;3.67;2.40;;;17.20;48.60;;;;;;4887563;29;20056;-93
2021/04/16 14:12:00;;;;;;;3.97;2.30;;;17.20;48.40;;;;;;4920012;29;20036;-93
2021/04/16 14:14:29;;;;;;;4.35;2.40;;;17.10;47.90;;;;;;4889019;29;20052;-93
2021/04/16 14:17:21;;;;;;;4.93;2.20;;;17.10;48.30;;;;;;4905568;29;20059;-92
2021/04/16 14:19:49;;;;;;;3.35;2.35;;;17.00;48.40;;;;;;4901339;29;20063;-93
2021/04/16 14:22:25;;;;;;;5.65;2.08;;;16.90;48.50;;;;;;4906578;29;20486;-93
2021/04/16 14:24:57;;;;;;;5.82;2.33;;;16.60;48.40;;;;;;4909339;29;20040;-93
2021/04/16 14:27:23;;;;;;;5.55;2.20;;;16.50;48.50;;;;;;4890811;29;20103;-93
2021/04/16 14:29:52;;;;;;;6.10;2.28;;;16.70;48.70;;;;;;4892501;29;20021;-93
2021/04/16 14:32:24;;;;;;;7.25;2.60;;;17.00;48.70;;;;;;4902885;29;20031;-93
2021/04/16 14:34:51;;;;;;;5.20;2.20;;;17.40;48.70;;;;;;4886703;29;20036;-93
2021/04/16 14:37:17;;;;;;;6.40;2.65;;;17.60;48.40;;;;;;4901865;29;20092;-93
2021/04/16 14:39:42;;;;;;;6.60;2.80;;;17.70;48.20;;;;;;4886826;29;20040;-93
2021/04/16 14:42:14;;;;;;;4.57;2.95;;;17.70;47.90;;;;;;4886227;29;20079;-93
2021/04/16 14:44:40;;;;;;;21.63;3.78;;;17.80;47.60;;;;;;4884561;29;20036;-92
2021/04/16 14:47:09;;;;;;;6.10;2.55;;;17.60;47.20;;;;;;4885521;29;20039;-93
2021/04/16 14:49:34;;;;;;;3.63;2.55;;;17.50;47.30;;;;;;4884921;29;20039;-94
2021/04/16 14:52:04;;;;;;;7.95;2.50;;;17.50;47.30;;;;;;4887128;29;20029;-93
2021/04/16 14:54:39;;;;;;;4.93;2.60;;;17.60;47.30;;;;;;4887622;29;20035;-92
2021/04/16 14:57:07;;;;;;;5.70;2.70;;;17.60;47.00;;;;;;4889132;29;20119;-93
2021/04/16 14:59:39;;;;;;;4.93;2.53;;;17.70;46.80;;;;;;4921019;29;20040;-93
2021/04/16 15:02:11;;;;;;;3.10;2.10;;;17.70;46.40;;;;;;4896402;29;20021;-93
2021/04/16 15:04:38;;;;;;;4.57;2.65;;;17.60;46.50;;;;;;4936132;29;20155;-94
2021/04/16 15:07:06;;;;;;;6.38;2.20;;;17.50;46.80;;;;;;4889507;29;20073;-92
2021/04/16 15:09:43;;;;;;;5.60;2.63;;;17.70;47.00;;;;;;4890686;29;20036;-94
2021/04/16 15:12:13;;;;;;;4.03;2.50;;;17.90;46.50;;;;;;4902181;29;20518;-93
2021/04/16 15:14:39;;;;;;;4.13;2.40;;;18.00;46.10;;;;;;4892662;29;20032;-92
2021/04/16 15:17:07;;;;;;;6.10;3.20;;;18.00;46.10;;;;;;4893475;29;20029;-93
2021/04/16 15:19:37;;;;;;;4.95;3.17;;;18.00;46.00;;;;;;4886257;29;20044;-93
2021/04/16 15:22:18;;;;;;;3.55;2.47;;;18.10;46.10;;;;;;4883440;29;20503;-92